createdAt,value
2023-05-21T00:02:23.097Z,6.90
2023-05-21T00:04:57.699Z,6.68
2023-05-21T00:07:33.203Z,7.32
2023-05-21T00:10:07.302Z,6.50
2023-05-21T00:12:41.689Z,6.82
2023-05-21T00:15:15.061Z,7.07
2023-05-21T00:17:48.339Z,6.28
2023-05-21T00:20:23.279Z,7.38
2023-05-21T00:22:56.537Z,6.90
2023-05-21T00:25:30.024Z,6.50
2023-05-21T00:28:03.375Z,6.35
2023-05-21T00:30:36.659Z,6.63
2023-05-21T00:33:10.595Z,6.65
2023-05-21T00:35:46.226Z,6.38
2023-05-21T00:38:19.588Z,6.63
2023-05-21T00:40:52.922Z,6.47
2023-05-21T00:43:26.637Z,6.10
2023-05-21T00:46:00.382Z,7.03
2023-05-21T00:51:08.536Z,6.00
2023-05-21T00:53:42.576Z,6.80
2023-05-21T00:56:16.301Z,6.60
2023-05-21T00:58:49.685Z,6.15
2023-05-21T01:01:25.716Z,6.10
2023-05-21T01:03:59.085Z,6.53
2023-05-21T01:06:35.447Z,6.22
2023-05-21T01:09:09.334Z,6.00
2023-05-21T01:11:45.843Z,6.47
2023-05-21T01:14:20.730Z,5.70
2023-05-21T01:16:54.715Z,5.95
2023-05-21T01:19:28.008Z,6.22
2023-05-21T01:22:06.455Z,5.78
2023-05-21T01:24:41.527Z,6.45
2023-05-21T01:27:14.843Z,5.53
2023-05-21T01:29:48.158Z,6.13
2023-05-21T01:32:29.298Z,6.68
2023-05-21T01:35:08.885Z,5.97
2023-05-21T01:37:47.406Z,5.93
2023-05-21T01:40:30.819Z,5.07
2023-05-21T01:43:06.830Z,5.78
2023-05-21T01:45:43.374Z,5.22
2023-05-21T01:48:18.408Z,6.82
2023-05-21T01:50:55.279Z,5.90
2023-05-21T01:53:28.661Z,6.03
2023-05-21T01:56:03.888Z,6.40
2023-05-21T01:58:37.502Z,5.50
2023-05-21T02:01:12.013Z,5.28
2023-05-21T02:03:45.354Z,5.45
2023-05-21T02:06:18.855Z,5.40
2023-05-21T02:08:52.182Z,5.68
2023-05-21T02:11:27.810Z,5.75
2023-05-21T02:14:01.113Z,5.80
2023-05-21T02:16:34.733Z,5.25
2023-05-21T02:19:10.543Z,4.85
2023-05-21T02:21:43.866Z,6.22
2023-05-21T02:24:17.167Z,5.63
2023-05-21T02:26:52.499Z,5.15
2023-05-21T02:29:26.148Z,4.97
2023-05-21T02:31:59.430Z,5.45
2023-05-21T02:34:33.069Z,5.00
2023-05-21T02:37:06.748Z,5.45
2023-05-21T02:42:14.526Z,4.90
2023-05-21T02:44:47.772Z,5.57
2023-05-21T02:47:22.329Z,5.90
2023-05-21T02:49:55.905Z,5.40
2023-05-21T02:52:30.501Z,5.40
2023-05-21T02:55:03.736Z,5.63
2023-05-21T02:57:38.387Z,4.68
2023-05-21T03:00:13.364Z,5.47
2023-05-21T03:02:48.147Z,5.40
2023-05-21T03:05:21.858Z,4.88
2023-05-21T03:07:55.082Z,4.85
2023-05-21T03:10:28.410Z,4.65
2023-05-21T03:13:05.678Z,5.55
2023-05-21T03:15:40.116Z,4.60
2023-05-21T03:18:15.368Z,5.25
2023-05-21T03:20:48.680Z,4.93
2023-05-21T03:23:21.934Z,4.63
2023-05-21T03:25:55.437Z,4.60
2023-05-21T03:28:30.188Z,4.88
2023-05-21T03:31:03.542Z,5.00
2023-05-21T03:33:57.099Z,4.82
2023-05-21T03:36:34.752Z,4.35
2023-05-21T03:39:09.303Z,5.40
2023-05-21T03:41:42.764Z,5.05
2023-05-21T03:47:13.333Z,4.60
2023-05-21T03:49:46.591Z,5.20
2023-05-21T03:52:20.107Z,4.18
2023-05-21T03:54:53.432Z,4.93
2023-05-21T03:57:26.953Z,4.68
2023-05-21T04:00:02.624Z,4.60
2023-05-21T04:02:37.901Z,5.13
2023-05-21T04:05:11.428Z,4.95
2023-05-21T04:07:46.499Z,5.15
2023-05-21T04:10:19.887Z,4.72
2023-05-21T04:12:53.457Z,4.45
2023-05-21T04:15:28.790Z,4.93
2023-05-21T04:18:02.266Z,3.97
2023-05-21T04:20:36.248Z,4.50
2023-05-21T04:23:10.459Z,4.07
2023-05-21T04:25:43.703Z,4.72
2023-05-21T04:28:19.909Z,4.25
2023-05-21T04:30:56.520Z,5.03
2023-05-21T04:33:30.866Z,4.30
2023-05-21T04:36:04.362Z,4.10
2023-05-21T04:38:38.372Z,4.65
2023-05-21T04:41:14.315Z,4.13
2023-05-21T04:43:47.627Z,4.70
2023-05-21T04:46:25.328Z,4.28
2023-05-21T04:49:02.995Z,4.43
2023-05-21T04:51:37.824Z,4.20
2023-05-21T04:54:11.318Z,3.90
2023-05-21T04:56:44.657Z,3.90
2023-05-21T04:59:18.676Z,4.43
2023-05-21T05:01:53.967Z,4.00
2023-05-21T05:04:28.544Z,3.58
2023-05-21T05:07:02.329Z,4.40
2023-05-21T05:09:35.568Z,4.70
2023-05-21T05:12:09.854Z,4.35
2023-05-21T05:14:43.166Z,4.35
2023-05-21T05:17:18.780Z,4.50
2023-05-21T05:19:53.180Z,4.25
2023-05-21T05:22:26.888Z,4.05
2023-05-21T05:25:00.179Z,3.78
2023-05-21T05:27:33.504Z,4.50
2023-05-21T05:30:08.321Z,3.97
2023-05-21T05:32:43.393Z,4.40
2023-05-21T05:35:17.676Z,4.18
2023-05-21T05:37:50.954Z,4.20
2023-05-21T05:40:24.329Z,3.95
2023-05-21T05:42:57.577Z,4.03
2023-05-21T05:45:30.914Z,4.20
2023-05-21T05:48:06.052Z,3.95
2023-05-21T05:50:39.329Z,3.90
2023-05-21T05:53:13.245Z,3.88
2023-05-21T05:58:19.897Z,4.20
2023-05-21T06:01:16.500Z,4.03
2023-05-21T06:03:51.991Z,3.83
2023-05-21T06:06:25.668Z,3.90
2023-05-21T06:08:59.219Z,4.07
2023-05-21T06:11:32.473Z,3.88
2023-05-21T06:14:05.748Z,3.42
2023-05-21T06:19:14.265Z,3.80
2023-05-21T06:21:47.693Z,3.65
2023-05-21T06:24:20.959Z,3.70
2023-05-21T06:26:54.228Z,3.78
2023-05-21T06:29:28.676Z,3.88
2023-05-21T06:32:02.110Z,3.30
2023-05-21T06:34:36.828Z,4.13
2023-05-21T06:37:10.090Z,3.47
2023-05-21T06:39:43.331Z,3.40
2023-05-21T06:42:16.723Z,3.65
2023-05-21T06:47:41.141Z,3.42
2023-05-21T06:50:16.047Z,3.92
2023-05-21T06:52:49.290Z,3.50
2023-05-21T06:55:22.756Z,3.67
2023-05-21T06:58:16.328Z,3.58
2023-05-21T07:00:50.117Z,3.30
2023-05-21T07:03:23.986Z,3.13
2023-05-21T07:05:59.407Z,3.45
2023-05-21T07:08:32.726Z,3.58
2023-05-21T07:11:06.343Z,3.30
2023-05-21T07:13:40.093Z,3.78
2023-05-21T07:16:13.507Z,3.75
2023-05-21T07:18:47.426Z,3.55
2023-05-21T07:21:22.338Z,4.05
2023-05-21T07:23:57.231Z,3.35
2023-05-21T07:26:30.619Z,3.65
2023-05-21T07:29:03.916Z,3.88
2023-05-21T07:31:37.407Z,3.75
2023-05-21T07:34:10.912Z,3.63
2023-05-21T07:36:47.662Z,3.58
2023-05-21T07:39:21.094Z,3.97
2023-05-21T07:41:55.164Z,4.28
2023-05-21T07:44:29.278Z,4.03
2023-05-21T07:47:02.909Z,4.43
2023-05-21T07:49:36.260Z,3.75
2023-05-21T07:52:10.886Z,5.32
2023-05-21T07:54:44.485Z,3.92
2023-05-21T07:57:18.096Z,4.70
2023-05-21T08:00:06.881Z,3.92
2023-05-21T08:02:49.357Z,4.03
2023-05-21T08:05:24.392Z,3.55
2023-05-21T08:07:59.144Z,4.78
2023-05-21T08:10:32.643Z,3.80
2023-05-21T08:13:06.914Z,4.10
2023-05-21T08:15:40.244Z,3.60
2023-05-21T08:18:14.442Z,3.65
2023-05-21T08:20:50.473Z,3.60
2023-05-21T08:23:27.265Z,3.08
2023-05-21T08:26:02.595Z,3.83
2023-05-21T08:28:38.996Z,3.17
2023-05-21T08:31:12.619Z,3.33
2023-05-21T08:33:51.623Z,3.10
2023-05-21T08:36:27.969Z,3.47
2023-05-21T08:39:08.265Z,2.83
2023-05-21T08:41:49.792Z,3.50
2023-05-21T08:44:30.056Z,2.80
2023-05-21T08:47:06.197Z,2.83
2023-05-21T08:49:39.673Z,3.28
2023-05-21T08:52:14.282Z,3.40
2023-05-21T08:54:52.418Z,3.10
2023-05-21T08:57:27.981Z,2.55
2023-05-21T09:00:04.782Z,2.78
2023-05-21T09:02:40.995Z,3.00
2023-05-21T09:05:15.773Z,2.75
2023-05-21T09:08:06.766Z,2.70
2023-05-21T09:10:53.944Z,3.00
2023-05-21T09:13:33.184Z,2.70
2023-05-21T09:16:11.239Z,2.58
2023-05-21T09:18:45.098Z,2.85
2023-05-21T09:21:29.331Z,2.67
2023-05-21T09:24:10.516Z,2.67
2023-05-21T09:26:45.920Z,2.70
2023-05-21T09:29:19.763Z,3.08
2023-05-21T09:31:54.974Z,2.67
2023-05-21T09:34:29.037Z,2.70
2023-05-21T09:37:03.657Z,2.42
2023-05-21T09:39:37.238Z,2.80
2023-05-21T09:44:45.522Z,2.67
2023-05-21T09:49:59.439Z,2.38
2023-05-21T09:52:32.800Z,2.70
2023-05-21T09:55:06.952Z,3.53
2023-05-21T09:57:48.036Z,3.03
2023-05-21T10:00:24.209Z,3.42
2023-05-21T10:02:58.699Z,2.85
2023-05-21T10:05:32.429Z,4.60
2023-05-21T10:10:41.606Z,3.10
2023-05-21T10:13:19.380Z,2.83
2023-05-21T10:16:00.588Z,3.40
2023-05-21T10:18:34.932Z,3.08
2023-05-21T10:21:09.781Z,2.50
2023-05-21T10:23:44.700Z,2.83
2023-05-21T10:26:19.545Z,2.95
2023-05-21T10:28:56.193Z,2.40
2023-05-21T10:31:30.534Z,2.25
2023-05-21T10:34:06.053Z,3.13
2023-05-21T10:36:39.892Z,2.78
2023-05-21T10:41:58.442Z,2.45
2023-05-21T10:44:45.412Z,2.70
2023-05-21T10:47:54.844Z,3.03
2023-05-21T10:50:48.689Z,2.60
2023-05-21T10:53:30.075Z,3.00
2023-05-21T10:56:15.572Z,3.03
2023-05-21T10:59:04.163Z,3.33
2023-05-21T11:01:40.670Z,2.53
2023-05-21T11:04:15.768Z,3.08
2023-05-21T11:06:49.602Z,3.08
2023-05-21T11:11:59.253Z,2.90
2023-05-21T11:14:36.258Z,2.92
2023-05-21T11:17:17.005Z,3.13
2023-05-21T11:19:51.489Z,3.75
2023-05-21T11:22:26.030Z,2.80
2023-05-21T11:25:03.638Z,2.88
2023-05-21T11:27:39.186Z,3.40
2023-05-21T11:30:17.260Z,2.50
2023-05-21T11:33:22.712Z,3.03
2023-05-21T11:36:01.884Z,2.83
2023-05-21T11:38:35.220Z,2.88
2023-05-21T11:41:10.858Z,2.42
2023-05-21T11:43:45.342Z,2.78
2023-05-21T11:46:19.002Z,2.97
2023-05-21T11:48:54.598Z,3.38
2023-05-21T11:51:28.083Z,5.00
2023-05-21T11:54:01.520Z,3.55
2023-05-21T11:56:41.884Z,3.05
2023-05-21T11:59:18.703Z,3.00
2023-05-21T12:01:52.356Z,2.38
2023-05-21T12:04:31.052Z,2.92
2023-05-21T12:07:07.297Z,2.88
2023-05-21T12:09:41.694Z,3.15
2023-05-21T12:12:17.212Z,2.78
2023-05-21T12:14:51.781Z,2.95
2023-05-21T12:17:26.583Z,3.05
2023-05-21T12:20:05.232Z,3.17
2023-05-21T12:22:44.172Z,3.13
2023-05-21T12:25:20.004Z,3.28
2023-05-21T12:27:58.110Z,3.88
2023-05-21T12:30:32.119Z,3.30
2023-05-21T12:35:40.416Z,2.65
2023-05-21T12:38:14.205Z,3.55
2023-05-21T12:41:05.527Z,2.97
2023-05-21T12:43:39.156Z,2.97
2023-05-21T12:48:51.585Z,3.33
2023-05-21T12:51:26.295Z,3.17
2023-05-21T12:54:02.251Z,3.40
2023-05-21T12:56:45.795Z,3.47
2023-05-21T12:59:19.010Z,2.67
2023-05-21T13:01:54.511Z,3.08
2023-05-21T13:04:27.934Z,3.00
2023-05-21T13:07:04.916Z,2.90
2023-05-21T13:09:38.338Z,2.83
2023-05-21T13:12:12.549Z,3.28
2023-05-21T13:14:45.828Z,3.00
2023-05-21T13:17:19.215Z,4.13
2023-05-21T13:20:08.374Z,2.80
2023-05-21T13:22:46.707Z,2.88
2023-05-21T13:25:22.474Z,3.00
2023-05-21T13:27:56.021Z,2.50
2023-05-21T13:30:29.429Z,3.03
2023-05-21T13:33:02.806Z,2.60
2023-05-21T13:35:36.248Z,3.58
2023-05-21T13:38:10.911Z,2.65
2023-05-21T13:40:44.370Z,2.50
2023-05-21T13:43:17.751Z,3.00
2023-05-21T13:45:51.811Z,2.95
2023-05-21T13:48:25.196Z,2.63
2023-05-21T13:50:58.568Z,3.15
2023-05-21T13:53:33.214Z,2.95
2023-05-21T13:56:06.930Z,2.63
2023-05-21T13:58:40.720Z,2.75
2023-05-21T14:03:47.101Z,2.50
2023-05-21T14:06:20.477Z,3.05
2023-05-21T14:08:55.074Z,3.17
2023-05-21T14:11:28.881Z,2.72
2023-05-21T14:14:02.902Z,3.10
2023-05-21T14:16:36.163Z,3.35
2023-05-21T14:19:09.479Z,3.13
2023-05-21T14:21:42.909Z,2.88
2023-05-21T14:24:17.511Z,3.00
2023-05-21T14:26:50.908Z,3.30
2023-05-21T14:29:24.310Z,3.45
2023-05-21T14:31:57.749Z,2.90
2023-05-21T14:34:31.206Z,3.13
2023-05-21T14:37:04.466Z,2.83
2023-05-21T14:39:39.051Z,3.17
2023-05-21T14:42:12.376Z,3.05
2023-05-21T14:44:45.617Z,2.78
2023-05-21T14:47:18.874Z,3.28
2023-05-21T14:49:52.151Z,2.38
2023-05-21T14:52:25.398Z,3.25
2023-05-21T14:55:00.044Z,3.13
2023-05-21T14:57:33.289Z,3.47
2023-05-21T15:00:08.232Z,3.22
2023-05-21T15:02:41.710Z,2.53
2023-05-21T15:05:14.949Z,2.67
2023-05-21T15:07:48.361Z,3.20
2023-05-21T15:10:23.242Z,3.45
2023-05-21T15:12:56.618Z,4.35
2023-05-21T15:15:30.124Z,3.80
2023-05-21T15:18:03.692Z,3.78
2023-05-21T15:20:37.234Z,4.40
2023-05-21T15:23:16.883Z,5.25
2023-05-21T15:25:52.616Z,4.28
2023-05-21T15:28:25.969Z,3.88
2023-05-21T15:30:59.305Z,4.68
2023-05-21T15:33:32.795Z,4.25
2023-05-21T15:36:06.668Z,4.65
2023-05-21T15:41:14.480Z,4.50
2023-05-21T15:43:47.796Z,4.05
2023-05-21T15:46:21.282Z,4.20
2023-05-21T15:48:54.689Z,3.63
2023-05-21T15:51:27.993Z,4.65
2023-05-21T15:54:01.298Z,4.18
2023-05-21T15:56:36.044Z,4.43
2023-05-21T15:59:09.371Z,4.32
2023-05-21T16:01:42.888Z,4.28
2023-05-21T16:04:17.834Z,4.60
2023-05-21T16:06:51.367Z,3.97
2023-05-21T16:09:25.085Z,4.60
2023-05-21T16:11:59.692Z,4.03
2023-05-21T16:14:33.057Z,3.70
2023-05-21T16:17:06.713Z,3.70
2023-05-21T16:22:13.463Z,3.80
2023-05-21T16:24:46.811Z,3.92
2023-05-21T16:27:21.536Z,3.80
2023-05-21T16:29:54.789Z,3.78
2023-05-21T16:32:28.758Z,3.70
2023-05-21T16:35:02.130Z,3.55
2023-05-21T16:37:35.592Z,3.30
2023-05-21T16:40:10.199Z,3.95
2023-05-21T16:42:44.788Z,3.10
2023-05-21T16:45:20.662Z,3.83
2023-05-21T16:47:54.218Z,4.00
2023-05-21T16:50:27.639Z,3.10
2023-05-21T16:53:02.495Z,3.53
2023-05-21T16:55:37.575Z,4.05
2023-05-21T16:58:13.655Z,3.42
2023-05-21T17:00:46.964Z,3.58
2023-05-21T17:03:20.483Z,2.83
2023-05-21T17:05:54.027Z,3.70
2023-05-21T17:08:27.336Z,2.95
2023-05-21T17:11:00.807Z,3.30
2023-05-21T17:13:35.681Z,3.42
2023-05-21T17:16:09.141Z,3.58
2023-05-21T17:18:42.444Z,3.45
2023-05-21T17:21:15.783Z,3.58
2023-05-21T17:23:49.089Z,3.40
2023-05-21T17:26:23.147Z,3.47
2023-05-21T17:28:57.866Z,4.03
2023-05-21T17:31:32.371Z,3.80
2023-05-21T17:34:06.064Z,3.53
2023-05-21T17:36:39.512Z,3.90
2023-05-21T17:39:13.301Z,3.55
2023-05-21T17:41:47.592Z,3.60
2023-05-21T17:44:22.685Z,3.50
2023-05-21T17:46:57.677Z,3.75
2023-05-21T17:49:31.708Z,4.68
2023-05-21T17:54:38.875Z,4.18
2023-05-21T17:57:13.749Z,4.80
2023-05-21T17:59:48.508Z,4.97
2023-05-21T18:02:23.496Z,3.83
2023-05-21T18:04:57.157Z,3.55
2023-05-21T18:07:30.575Z,4.05
2023-05-21T18:10:04.034Z,4.30
2023-05-21T18:12:37.477Z,3.90
2023-05-21T18:15:12.483Z,3.35
2023-05-21T18:17:46.594Z,3.83
2023-05-21T18:20:20.016Z,3.80
2023-05-21T18:22:54.033Z,3.72
2023-05-21T18:25:27.301Z,3.88
2023-05-21T18:28:00.794Z,4.10
2023-05-21T18:30:35.837Z,3.67
2023-05-21T18:33:09.336Z,3.13
2023-05-21T18:35:44.453Z,3.03
2023-05-21T18:38:17.981Z,4.10
2023-05-21T18:40:51.699Z,3.60
2023-05-21T18:45:59.427Z,3.60
2023-05-21T18:48:33.024Z,3.75
2023-05-21T18:51:06.293Z,3.55
2023-05-21T18:53:40.401Z,5.00
2023-05-21T18:56:13.711Z,3.95
2023-05-21T18:58:47.642Z,3.30
2023-05-21T19:03:55.432Z,3.75
2023-05-21T19:06:28.747Z,3.60
2023-05-21T19:09:02.114Z,3.42
2023-05-21T19:11:37.443Z,4.50
2023-05-21T19:14:10.760Z,4.03
2023-05-21T19:16:45.462Z,4.03
2023-05-21T19:19:18.821Z,3.67
2023-05-21T19:21:52.886Z,3.88
2023-05-21T19:24:26.199Z,4.15
2023-05-21T19:27:00.185Z,4.40
2023-05-21T19:29:33.530Z,3.88
2023-05-21T19:32:09.611Z,4.00
2023-05-21T19:34:43.034Z,3.47
2023-05-21T19:37:16.757Z,4.30
2023-05-21T19:39:50.406Z,4.28
2023-05-21T19:44:56.885Z,4.85
2023-05-21T19:47:32.298Z,3.75
2023-05-21T19:50:06.565Z,3.58
2023-05-21T19:52:40.873Z,4.05
2023-05-21T19:55:14.522Z,4.15
2023-05-21T19:57:47.999Z,4.90
2023-05-21T20:00:22.323Z,4.78
2023-05-21T20:02:57.739Z,4.60
2023-05-21T20:05:32.606Z,5.05
2023-05-21T20:08:06.212Z,4.72
2023-05-21T20:10:40.534Z,5.00
2023-05-21T20:13:13.884Z,4.10
2023-05-21T20:15:47.836Z,4.97
2023-05-21T20:18:22.707Z,4.97
2023-05-21T20:20:56.875Z,4.75
2023-05-21T20:23:30.133Z,4.93
2023-05-21T20:26:03.434Z,4.78
2023-05-21T20:28:37.410Z,5.10
2023-05-21T20:31:11.252Z,4.50
2023-05-21T20:33:46.385Z,5.03
2023-05-21T20:36:21.161Z,5.18
2023-05-21T20:38:54.522Z,4.88
2023-05-21T20:41:28.335Z,4.60
2023-05-21T20:46:38.578Z,5.10
2023-05-21T20:49:13.708Z,4.40
2023-05-21T20:51:47.784Z,4.25
2023-05-21T20:56:58.958Z,4.53
2023-05-21T20:59:32.332Z,4.18
2023-05-21T21:02:07.032Z,3.75
2023-05-21T21:04:42.276Z,3.92
2023-05-21T21:07:18.105Z,4.38
2023-05-21T21:09:51.425Z,3.60
2023-05-21T21:12:26.516Z,5.72
2023-05-21T21:15:00.230Z,4.28
2023-05-21T21:17:33.508Z,4.38
2023-05-21T21:20:10.723Z,4.35
2023-05-21T21:22:44.152Z,4.50
2023-05-21T21:25:18.376Z,4.60
2023-05-21T21:27:51.672Z,4.68
2023-05-21T21:30:24.991Z,3.88
2023-05-21T21:32:58.403Z,4.22
2023-05-21T21:35:33.018Z,3.95
2023-05-21T21:38:06.234Z,3.70
2023-05-21T21:40:39.924Z,4.82
2023-05-21T21:43:13.433Z,3.75
2023-05-21T21:45:46.785Z,3.88
2023-05-21T21:48:20.114Z,4.15
2023-05-21T21:50:54.762Z,4.35
2023-05-21T21:53:28.103Z,4.10
2023-05-21T21:56:01.701Z,5.03
2023-05-21T21:58:34.898Z,5.25
2023-05-21T22:01:08.239Z,3.55
2023-05-21T22:03:41.656Z,4.05
2023-05-21T22:06:16.256Z,3.17
2023-05-21T22:08:49.482Z,3.80
2023-05-21T22:11:22.814Z,5.03
2023-05-21T22:13:56.219Z,4.07
2023-05-21T22:16:29.515Z,3.80
2023-05-21T22:19:02.829Z,4.80
2023-05-21T22:21:37.465Z,4.00
2023-05-21T22:24:24.201Z,4.07
2023-05-21T22:26:57.728Z,5.72
2023-05-21T22:29:31.166Z,4.35
2023-05-21T22:32:05.021Z,4.15
2023-05-21T22:37:12.724Z,4.32
2023-05-21T22:39:46.002Z,4.03
2023-05-21T22:42:19.752Z,4.00
2023-05-21T22:44:53.161Z,4.00
2023-05-21T22:47:26.516Z,4.40
2023-05-21T22:50:00.708Z,4.45
2023-05-21T22:52:35.477Z,4.07
2023-05-21T22:55:11.377Z,3.97
2023-05-21T22:57:45.171Z,3.80
2023-05-21T23:02:54.322Z,3.85
2023-05-21T23:05:29.368Z,3.85
2023-05-21T23:08:04.204Z,4.20
2023-05-21T23:10:37.733Z,3.80
2023-05-21T23:15:48.452Z,4.15
2023-05-21T23:18:22.019Z,4.00
2023-05-21T23:20:55.823Z,4.38
2023-05-21T23:26:03.756Z,3.35
2023-05-21T23:28:38.658Z,4.25
2023-05-21T23:31:12.579Z,4.22
2023-05-21T23:33:45.945Z,4.18
2023-05-21T23:36:19.335Z,3.85
2023-05-21T23:38:54.036Z,3.95
2023-05-21T23:41:28.197Z,4.18
2023-05-21T23:44:01.654Z,3.90
2023-05-21T23:46:34.925Z,4.25
2023-05-21T23:49:08.338Z,3.92
2023-05-21T23:51:41.760Z,3.92
2023-05-21T23:54:16.979Z,4.20
2023-05-21T23:56:50.533Z,4.18
2023-05-21T23:59:23.842Z,4.55
